Time;durP1;ratioP1;P1;durP2;ratioP2;P2;SDS_P1;SDS_P2;PMS_P1;PMS_P2;Temp;Humidity;BMP_temperature;BMP_pressure;BME280_temperature;BME280_humidity;BME280_pressure;Samples;Min_cycle;Max_cycle;Signal;HPM_P1;HPM_P2
2022/10/24 00:01:54;;;;;;;14.60;11.10;;;;;;;9.16;99.90;97896.00;105633;1302;22107;-84
2022/10/24 00:04:22;;;;;;;15.60;11.20;;;;;;;9.16;99.88;97891.48;105786;1315;22291;-84
2022/10/24 00:06:50;;;;;;;10.90;9.80;;;;;;;9.19;100.00;97891.17;105793;1309;22786;-84
2022/10/24 00:09:18;;;;;;;11.40;10.20;;;;;;;9.22;99.93;97889.84;105378;1323;22697;-84
2022/10/24 00:11:46;;;;;;;10.70;9.70;;;;;;;9.26;99.72;97893.80;105412;1322;22748;-84
2022/10/24 00:14:14;;;;;;;16.50;10.90;;;;;;;9.29;99.79;97899.05;105395;1324;22203;-85
2022/10/24 00:16:42;;;;;;;16.20;14.50;;;;;;;9.35;100.00;97892.98;105762;1292;22164;-85
2022/10/24 00:19:09;;;;;;;14.80;12.80;;;;;;;9.37;99.96;97884.05;105280;1324;22202;-85
2022/10/24 00:21:37;;;;;;;14.00;11.30;;;;;;;9.42;100.00;97873.80;105072;1324;22199;-83
2022/10/24 00:24:07;;;;;;;14.40;12.70;;;;;;;9.46;99.92;97864.75;105584;1311;22266;-83
2022/10/24 00:26:35;;;;;;;16.60;15.00;;;;;;;9.49;99.85;97864.12;105068;1324;22814;-84
2022/10/24 00:29:04;;;;;;;14.20;12.80;;;;;;;9.53;100.00;97874.48;105605;1316;22766;-85
2022/10/24 00:31:32;;;;;;;12.80;10.10;;;;;;;9.61;100.00;97880.99;105618;1315;22057;-85
2022/10/24 00:34:00;;;;;;;10.70;9.60;;;;;;;9.71;100.00;97878.90;105785;1316;22744;-84
2022/10/24 00:36:28;;;;;;;11.10;8.90;;;;;;;9.81;100.00;97880.29;105390;1324;22779;-86
2022/10/24 00:38:56;;;;;;;11.30;8.60;;;;;;;9.92;100.00;97880.98;105325;1323;22857;-86
2022/10/24 00:41:28;;;;;;;9.90;8.50;;;;;;;10.00;100.00;97881.48;105772;1316;22208;-85
2022/10/24 00:44:39;;;;;;;10.30;9.30;;;;;;;10.08;100.00;97884.45;105624;1316;22083;-85
2022/10/24 00:47:27;;;;;;;10.90;9.80;;;;;;;10.14;100.00;97889.43;104936;1323;22152;-85
2022/10/24 00:50:01;;;;;;;11.40;10.20;;;;;;;10.18;100.00;97893.74;104718;1330;22256;-86
2022/10/24 00:52:37;;;;;;;10.20;9.20;;;;;;;10.21;99.93;97887.48;104703;1329;22311;-86
2022/10/24 00:55:06;;;;;;;12.60;9.60;;;;;;;10.22;99.74;97879.81;104828;1318;22607;-86
2022/10/24 00:57:43;;;;;;;12.90;11.00;;;;;;;10.24;99.68;97877.16;104970;1322;22401;-84
2022/10/24 01:00:17;;;;;;;12.00;10.70;;;;;;;10.24;99.60;97877.33;104867;1318;22127;-86
2022/10/24 01:02:44;;;;;;;11.30;10.10;;;;;;;10.21;99.53;97878.71;104951;1323;22256;-85
2022/10/24 01:05:13;;;;;;;10.30;9.10;;;;;;;10.13;99.39;97878.05;104967;1323;22117;-85
2022/10/24 01:08:00;;;;;;;11.20;10.10;;;;;;;10.05;99.24;97873.34;104888;1323;22139;-85
2022/10/24 01:10:28;;;;;;;11.70;8.90;;;;;;;10.01;99.33;97871.79;104945;1314;23049;-86
2022/10/24 01:13:01;;;;;;;12.70;9.80;;;;;;;9.99;99.54;97872.02;104942;1312;22119;-86
2022/10/24 01:15:46;;;;;;;13.70;11.30;;;;;;;10.01;99.84;97859.40;104957;1322;22221;-85
2022/10/24 01:18:27;;;;;;;11.20;9.70;;;;;;;10.04;99.87;97861.84;105071;1323;22224;-86
2022/10/24 01:21:12;;;;;;;12.60;8.90;;;;;;;10.04;99.71;97867.01;105255;1323;22103;-86
2022/10/24 01:24:03;;;;;;;11.00;9.10;;;;;;;10.03;99.80;97871.10;105810;1299;22215;-86
2022/10/24 01:26:49;;;;;;;12.60;9.20;;;;;;;10.03;99.61;97869.88;105816;1302;22133;-86
2022/10/24 01:29:43;;;;;;;10.30;7.90;;;;;;;10.03;99.35;97864.17;105391;1323;22949;-85
2022/10/24 01:32:33;;;;;;;11.00;9.70;;;;;;;10.02;99.38;97856.44;105394;1323;22765;-86
2022/10/24 01:35:07;;;;;;;11.60;10.30;;;;;;;9.99;99.38;97853.67;105117;1324;22177;-86
2022/10/24 01:37:41;;;;;;;11.20;10.10;;;;;;;9.96;99.46;97849.31;105271;1319;22228;-85
2022/10/24 01:40:17;;;;;;;9.20;8.20;;;;;;;9.95;99.45;97844.17;105829;1316;22193;-86
2022/10/24 01:42:48;;;;;;;10.60;8.40;;;;;;;9.89;99.19;97847.29;105385;1323;22102;-85
2022/10/24 01:45:24;;;;;;;10.70;8.60;;;;;;;9.83;99.01;97841.69;105622;1317;22180;-86
2022/10/24 01:47:55;;;;;;;9.80;8.80;;;;;;;9.79;99.12;97846.06;105826;1316;22073;-86
2022/10/24 01:50:26;;;;;;;11.80;9.40;;;;;;;9.74;98.99;97850.05;105821;1316;22077;-85
2022/10/24 01:52:56;;;;;;;10.00;8.50;;;;;;;9.69;99.22;97856.55;105640;1316;22096;-85
2022/10/24 01:55:24;;;;;;;10.50;8.60;;;;;;;9.61;99.03;97859.43;105836;1316;22236;-85
2022/10/24 01:57:52;;;;;;;13.20;8.10;;;;;;;9.56;99.13;97851.64;105378;1315;22072;-86
2022/10/24 02:00:22;;;;;;;12.10;8.80;;;;;;;9.52;99.09;97849.66;105410;1324;22982;-85
2022/10/24 02:02:59;;;;;;;9.80;8.80;;;;;;;9.47;98.50;97843.44;105310;1324;22226;-86
2022/10/24 02:05:42;;;;;;;8.90;7.80;;;;;;;9.33;98.34;97846.44;105437;1316;22177;-85
2022/10/24 02:08:16;;;;;;;10.30;8.80;;;;;;;9.21;98.57;97846.84;105835;1315;22191;-85
2022/10/24 02:10:49;;;;;;;9.70;8.70;;;;;;;9.16;98.94;97847.35;105567;1311;22247;-85
2022/10/24 02:13:31;;;;;;;11.30;10.20;;;;;;;9.11;98.91;97845.85;105826;1305;22144;-86
2022/10/24 02:16:00;;;;;;;16.90;15.30;;;;;;;9.05;99.08;97841.04;105428;1322;22201;-86
2022/10/24 02:18:29;;;;;;;10.90;9.80;;;;;;;9.05;99.31;97837.85;105623;1306;22179;-86
2022/10/24 02:21:16;;;;;;;9.10;8.20;;;;;;;9.07;99.01;97838.38;105416;1324;22271;-85
2022/10/24 02:24:06;;;;;;;11.90;10.70;;;;;;;8.96;98.65;97846.63;105398;1324;22211;-85
2022/10/24 02:26:51;;;;;;;14.40;13.10;;;;;;;8.83;98.89;97852.28;105240;1315;22185;-85
2022/10/24 02:29:26;;;;;;;15.40;14.00;;;;;;;8.82;99.11;97852.02;105325;1324;22170;-83
2022/10/24 02:31:57;;;;;;;16.50;14.80;;;;;;;8.83;99.12;97844.50;105237;1326;22202;-86
2022/10/24 02:34:31;;;;;;;13.50;12.30;;;;;;;8.82;99.48;97843.33;105572;1316;22165;-86
2022/10/24 02:37:02;;;;;;;15.40;13.90;;;;;;;8.78;98.41;97843.10;105823;1316;22173;-86
2022/10/24 02:39:33;;;;;;;16.30;14.80;;;;;;;8.69;98.24;97849.13;105800;1316;22186;-86
2022/10/24 02:42:04;;;;;;;14.70;13.40;;;;;;;8.63;98.61;97857.30;105823;1316;22042;-86
2022/10/24 02:44:33;;;;;;;15.20;12.00;;;;;;;8.57;98.64;97857.70;105395;1327;22204;-86
2022/10/24 02:47:04;;;;;;;13.90;12.60;;;;;;;8.53;98.83;97857.37;105655;1305;22162;-87
2022/10/24 02:49:32;;;;;;;14.30;12.80;;;;;;;8.53;98.87;97849.70;105351;1325;22094;-85
2022/10/24 02:52:00;;;;;;;17.70;14.60;;;;;;;8.55;98.73;97855.84;105661;1309;22815;-86
2022/10/24 02:54:28;;;;;;;17.40;15.70;;;;;;;8.53;99.09;97852.05;105827;1316;22179;-86
2022/10/24 02:57:00;;;;;;;14.60;13.10;;;;;;;8.54;99.07;97847.73;105809;1316;22188;-87
2022/10/24 02:59:28;;;;;;;13.20;11.90;;;;;;;8.48;98.68;97850.72;105350;1324;22100;-87
2022/10/24 03:01:56;;;;;;;11.50;9.20;;;;;;;8.45;98.76;97850.85;105668;1316;22928;-86
2022/10/24 03:04:28;;;;;;;22.60;20.40;;;;;;;8.40;98.83;97840.76;105659;1315;22609;-85
2022/10/24 03:06:56;;;;;;;16.30;14.60;;;;;;;8.41;98.85;97837.75;105842;1316;22253;-86
2022/10/24 03:09:24;;;;;;;16.10;14.50;;;;;;;8.45;99.11;97832.38;105422;1323;22067;-87
2022/10/24 03:11:52;;;;;;;20.20;17.30;;;;;;;8.52;99.34;97825.44;105319;1328;22919;-87
2022/10/24 03:14:20;;;;;;;21.30;19.10;;;;;;;8.57;99.64;97820.47;105836;1306;22831;-87
2022/10/24 03:17:13;;;;;;;15.70;14.10;;;;;;;8.55;99.07;97814.87;105402;1323;22119;-86
2022/10/24 03:19:41;;;;;;;15.20;13.60;;;;;;;8.38;98.90;97806.98;105728;1308;22151;-86
2022/10/24 03:22:09;;;;;;;15.00;11.00;;;;;;;8.38;99.09;97811.46;105626;1324;22188;-84
2022/10/24 03:24:37;;;;;;;16.20;11.10;;;;;;;8.39;98.75;97813.17;105372;1328;22078;-86
2022/10/24 03:27:22;;;;;;;17.40;14.30;;;;;;;8.35;98.99;97829.94;105546;1317;22108;-86
2022/10/24 03:29:49;;;;;;;20.70;16.60;;;;;;;8.30;99.15;97839.88;105832;1308;22113;-86
2022/10/24 03:32:17;;;;;;;16.80;15.00;;;;;;;8.28;99.30;97835.98;105485;1325;22178;-84
2022/10/24 03:34:45;;;;;;;15.60;14.00;;;;;;;8.31;99.21;97827.79;105876;1305;22094;-84
2022/10/24 03:37:38;;;;;;;18.10;15.50;;;;;;;8.36;99.41;97833.10;105885;1316;22077;-85
2022/10/24 03:40:07;;;;;;;18.20;15.40;;;;;;;8.40;99.36;97841.34;105829;1316;22136;-85
2022/10/24 03:42:35;;;;;;;21.70;18.50;;;;;;;8.36;99.37;97848.47;105813;1316;22185;-85
2022/10/24 03:45:03;;;;;;;22.90;20.60;;;;;;;8.27;99.61;97847.86;105417;1313;22779;-85
2022/10/24 03:47:31;;;;;;;25.00;22.60;;;;;;;8.23;99.62;97844.35;105655;1317;22147;-84
2022/10/24 03:49:59;;;;;;;25.50;23.10;;;;;;;8.26;99.88;97844.38;105818;1315;22166;-84
2022/10/24 03:52:27;;;;;;;18.40;16.70;;;;;;;8.32;99.94;97854.08;105422;1323;22912;-84
2022/10/24 03:54:55;;;;;;;22.30;20.10;;;;;;;8.33;99.42;97850.96;105401;1323;22104;-84
2022/10/24 03:57:23;;;;;;;22.20;20.00;;;;;;;8.32;99.57;97840.77;105576;1317;22169;-84
2022/10/24 03:59:51;;;;;;;20.50;18.40;;;;;;;8.40;99.96;97830.56;105569;1316;22124;-83
2022/10/24 04:02:19;;;;;;;23.60;19.50;;;;;;;8.48;99.74;97834.07;105324;1308;22293;-85
2022/10/24 04:04:46;;;;;;;30.60;26.30;;;;;;;8.44;99.81;97845.48;105558;1311;22940;-84
2022/10/24 04:07:14;;;;;;;31.20;27.20;;;;;;;8.40;100.00;97845.42;105420;1323;22227;-84
2022/10/24 04:09:42;;;;;;;26.60;23.80;;;;;;;8.46;100.00;97846.98;104999;1327;22211;-83
2022/10/24 04:12:10;;;;;;;24.90;22.30;;;;;;;8.51;100.00;97844.13;105404;1323;22114;-85
2022/10/24 04:14:38;;;;;;;27.00;23.40;;;;;;;8.53;100.00;97841.38;105808;1316;22164;-83
2022/10/24 04:17:06;;;;;;;23.20;19.50;;;;;;;8.53;100.00;97840.19;105422;1324;22099;-83
2022/10/24 04:19:34;;;;;;;37.50;29.50;;;;;;;8.50;100.00;97838.77;105542;1309;22966;-83
2022/10/24 04:22:02;;;;;;;36.50;30.20;;;;;;;8.50;100.00;97835.88;105396;1319;22115;-83
2022/10/24 04:24:30;;;;;;;42.60;35.50;;;;;;;8.54;100.00;97832.23;105319;1324;22212;-83
2022/10/24 04:26:58;;;;;;;40.10;34.00;;;;;;;8.62;100.00;97832.23;105618;1303;22166;-83
2022/10/24 04:29:25;;;;;;;33.10;26.20;;;;;;;8.68;100.00;97837.16;105323;1323;22113;-84
2022/10/24 04:31:53;;;;;;;104.30;88.60;;;;;;;8.65;100.00;97841.29;105338;1324;22923;-83
2022/10/24 04:34:21;;;;;;;39.00;31.90;;;;;;;8.67;100.00;97847.77;105327;1324;22173;-84
2022/10/24 04:36:49;;;;;;;38.90;32.10;;;;;;;8.65;100.00;97840.09;105624;1316;22185;-84
2022/10/24 04:39:18;;;;;;;37.50;32.60;;;;;;;8.64;100.00;97839.55;105407;1323;22370;-84
2022/10/24 04:41:46;;;;;;;37.10;32.10;;;;;;;8.69;100.00;97835.92;105416;1324;22174;-84
2022/10/24 04:44:14;;;;;;;35.90;28.40;;;;;;;8.77;100.00;97837.48;105430;1324;22874;-84
2022/10/24 04:46:42;;;;;;;31.00;27.20;;;;;;;8.86;100.00;97832.80;105333;1324;22187;-86
2022/10/24 04:49:11;;;;;;;33.50;28.50;;;;;;;8.89;100.00;97832.65;105800;1305;22157;-86
2022/10/24 04:51:39;;;;;;;35.70;30.00;;;;;;;8.86;100.00;97826.13;105776;1316;22177;-83
2022/10/24 04:54:07;;;;;;;55.80;50.00;;;;;;;8.83;100.00;97821.71;105583;1316;22347;-84
2022/10/24 04:56:35;;;;;;;32.60;28.90;;;;;;;8.84;100.00;97822.39;105394;1323;22190;-84
2022/10/24 04:59:03;;;;;;;29.20;26.00;;;;;;;8.87;100.00;97816.17;105410;1323;22184;-85
2022/10/24 05:01:31;;;;;;;28.40;22.70;;;;;;;8.93;100.00;97807.02;105461;1319;22068;-85
2022/10/24 05:03:59;;;;;;;26.10;21.90;;;;;;;8.99;100.00;97802.58;105634;1310;22211;-85
2022/10/24 05:06:32;;;;;;;29.00;21.90;;;;;;;9.06;100.00;97809.63;105835;1306;22827;-85
2022/10/24 05:08:59;;;;;;;31.30;24.40;;;;;;;9.12;100.00;97806.15;105653;1316;22174;-85
2022/10/24 05:11:27;;;;;;;33.90;26.50;;;;;;;9.10;100.00;97809.41;105397;1323;22097;-84
2022/10/24 05:13:55;;;;;;;30.90;26.00;;;;;;;9.09;100.00;97813.45;105395;1323;22164;-85
2022/10/24 05:16:23;;;;;;;44.20;37.50;;;;;;;9.09;100.00;97818.34;105624;1302;23419;-84
2022/10/24 05:18:51;;;;;;;28.50;23.80;;;;;;;9.11;100.00;97820.26;105828;1314;22200;-85
2022/10/24 05:21:19;;;;;;;27.30;23.20;;;;;;;9.13;100.00;97818.40;105492;1316;22082;-85
2022/10/24 05:23:47;;;;;;;24.80;22.20;;;;;;;9.16;100.00;97817.60;105093;1324;22120;-85
2022/10/24 05:26:15;;;;;;;31.60;28.20;;;;;;;9.16;100.00;97820.40;105277;1324;22068;-85
2022/10/24 05:28:43;;;;;;;32.30;28.20;;;;;;;9.16;100.00;97829.60;105203;1323;22129;-84
2022/10/24 05:31:19;;;;;;;34.90;29.80;;;;;;;9.13;100.00;97825.08;105310;1324;22213;-86
2022/10/24 05:33:47;;;;;;;27.30;24.50;;;;;;;9.14;100.00;97821.55;105423;1323;22746;-83
2022/10/24 05:36:15;;;;;;;35.00;31.40;;;;;;;9.09;100.00;97822.27;105304;1307;22206;-85
2022/10/24 05:38:43;;;;;;;37.60;33.90;;;;;;;9.07;100.00;97816.92;105802;1316;22079;-84
2022/10/24 05:41:11;;;;;;;44.30;39.70;;;;;;;9.15;100.00;97826.55;105306;1323;22212;-84
2022/10/24 05:43:39;;;;;;;43.20;38.90;;;;;;;9.21;100.00;97827.48;105812;1306;22142;-83
2022/10/24 05:46:06;;;;;;;38.20;34.20;;;;;;;9.21;100.00;97827.36;105210;1324;22142;-85
2022/10/24 05:48:35;;;;;;;48.30;43.20;;;;;;;9.23;100.00;97826.27;105562;1317;22793;-83
2022/10/24 05:51:03;;;;;;;34.70;31.00;;;;;;;9.29;100.00;97820.52;105639;1316;22038;-85
2022/10/24 05:53:31;;;;;;;26.10;23.30;;;;;;;9.39;100.00;97831.88;105419;1324;22172;-86
2022/10/24 05:55:59;;;;;;;31.30;26.90;;;;;;;9.58;100.00;97837.39;105566;1317;22186;-83
2022/10/24 05:58:26;;;;;;;35.50;29.70;;;;;;;9.71;100.00;97835.91;105795;1315;22829;-85
2022/10/24 06:00:54;;;;;;;57.80;51.90;;;;;;;9.81;100.00;97844.58;105804;1309;22167;-84
2022/10/24 06:03:22;;;;;;;59.10;51.00;;;;;;;9.89;100.00;97847.61;105644;1316;22086;-84
2022/10/24 06:05:50;;;;;;;51.80;43.40;;;;;;;9.97;100.00;97844.02;105385;1324;22208;-84
2022/10/24 06:08:18;;;;;;;49.30;41.60;;;;;;;10.05;100.00;97849.59;105814;1301;22131;-85
2022/10/24 06:10:48;;;;;;;38.20;32.80;;;;;;;10.14;100.00;97850.30;105000;1324;22094;-85
2022/10/24 06:13:16;;;;;;;32.00;28.50;;;;;;;10.20;100.00;97857.08;105067;1324;22815;-83
2022/10/24 06:15:44;;;;;;;29.70;26.60;;;;;;;10.20;100.00;97868.55;105641;1316;22184;-85
2022/10/24 06:18:12;;;;;;;31.10;27.80;;;;;;;10.20;100.00;97863.81;105614;1302;22830;-85
2022/10/24 06:20:40;;;;;;;27.40;24.40;;;;;;;10.21;100.00;97870.79;105836;1314;22096;-88
2022/10/24 06:23:08;;;;;;;42.50;30.30;;;;;;;10.21;100.00;97873.45;105646;1316;22225;-88
2022/10/24 06:25:38;;;;;;;35.50;30.90;;;;;;;10.22;100.00;97868.57;105393;1315;22070;-87
2022/10/24 06:28:06;;;;;;;37.60;30.50;;;;;;;10.28;100.00;97872.00;105565;1304;22236;-87
2022/10/24 06:30:39;;;;;;;45.30;32.10;;;;;;;10.32;100.00;97872.78;105832;1316;22051;-86
2022/10/24 06:33:07;;;;;;;34.20;30.80;;;;;;;10.36;100.00;97873.52;105443;1323;22200;-87
2022/10/24 06:35:35;;;;;;;37.60;30.40;;;;;;;10.40;100.00;97875.11;105825;1309;22970;-86
2022/10/24 06:38:03;;;;;;;37.20;32.30;;;;;;;10.44;100.00;97883.35;105427;1323;22692;-87
2022/10/24 06:40:32;;;;;;;39.50;33.10;;;;;;;10.49;100.00;97886.77;105323;1323;22102;-85
2022/10/24 06:43:00;;;;;;;36.30;31.50;;;;;;;10.55;100.00;97894.24;105119;1323;22065;-85
2022/10/24 06:45:27;;;;;;;34.30;30.80;;;;;;;10.60;100.00;97894.84;105835;1309;22212;-83
2022/10/24 06:47:55;;;;;;;33.20;30.20;;;;;;;10.60;100.00;97894.79;105425;1323;22743;-84
2022/10/24 06:50:23;;;;;;;33.30;30.00;;;;;;;10.60;100.00;97896.88;105812;1316;22864;-87
2022/10/24 06:52:51;;;;;;;35.50;31.90;;;;;;;10.62;100.00;97898.84;105830;1316;22045;-86
2022/10/24 06:55:19;;;;;;;48.70;31.50;;;;;;;10.66;100.00;97897.64;105305;1323;22375;-85
2022/10/24 06:57:47;;;;;;;34.90;31.50;;;;;;;10.71;100.00;97892.41;105814;1315;22159;-82
2022/10/24 07:00:15;;;;;;;40.70;35.70;;;;;;;10.78;100.00;97887.70;105268;1323;22207;-85
2022/10/24 07:02:43;;;;;;;55.60;43.90;;;;;;;10.83;100.00;97877.09;105412;1324;22226;-84
2022/10/24 07:05:13;;;;;;;48.30;38.30;;;;;;;10.87;100.00;97873.54;105333;1323;23160;-82
2022/10/24 07:07:42;;;;;;;50.40;34.90;;;;;;;10.92;100.00;97870.55;105836;1316;22183;-84
2022/10/24 07:10:14;;;;;;;46.20;33.80;;;;;;;10.96;100.00;97866.64;105794;1302;22802;-84
2022/10/24 07:12:42;;;;;;;39.60;35.50;;;;;;;11.03;100.00;97874.42;105415;1323;22800;-84
2022/10/24 07:15:11;;;;;;;41.70;37.30;;;;;;;11.10;100.00;97876.95;105449;1323;22198;-84
2022/10/24 07:17:44;;;;;;;45.10;40.90;;;;;;;11.19;100.00;97879.25;105340;1323;22193;-83
2022/10/24 07:20:13;;;;;;;39.90;36.20;;;;;;;11.25;100.00;97880.41;105812;1315;22148;-84
2022/10/24 07:22:44;;;;;;;41.90;37.90;;;;;;;11.30;100.00;97882.08;105800;1315;22155;-83
2022/10/24 07:25:13;;;;;;;36.50;33.10;;;;;;;11.39;100.00;97882.98;105319;1323;22087;-84
2022/10/24 07:27:41;;;;;;;37.70;34.10;;;;;;;11.51;100.00;97884.10;105817;1309;22112;-85
2022/10/24 07:30:17;;;;;;;42.10;37.70;;;;;;;11.64;100.00;97883.23;105804;1316;22129;-84
2022/10/24 07:32:45;;;;;;;35.90;32.30;;;;;;;11.75;100.00;97883.22;105103;1324;22204;-81
2022/10/24 07:35:13;;;;;;;34.40;31.00;;;;;;;11.83;100.00;97883.73;105809;1316;22203;-83
2022/10/24 07:37:41;;;;;;;32.50;29.30;;;;;;;11.92;100.00;97884.25;105106;1324;22901;-82
2022/10/24 07:40:10;;;;;;;30.70;27.70;;;;;;;11.99;100.00;97874.52;105410;1324;22221;-82
2022/10/24 07:42:38;;;;;;;32.10;28.80;;;;;;;12.07;100.00;97872.11;105195;1324;22260;-82
2022/10/24 07:45:07;;;;;;;28.90;26.30;;;;;;;12.18;100.00;97874.46;105794;1316;22811;-83
2022/10/24 07:47:35;;;;;;;32.60;26.40;;;;;;;12.34;100.00;97885.84;105126;1323;22853;-84
2022/10/24 07:50:05;;;;;;;30.50;27.50;;;;;;;12.44;100.00;97888.05;105351;1324;22079;-85
2022/10/24 07:52:33;;;;;;;30.30;27.10;;;;;;;12.57;99.96;97895.98;105125;1324;22213;-85
2022/10/24 07:55:00;;;;;;;39.60;35.80;;;;;;;12.68;99.82;97894.50;105806;1314;22308;-83
2022/10/24 07:57:29;;;;;;;32.70;28.90;;;;;;;12.82;99.75;97889.86;105363;1324;22205;-84
2022/10/24 07:59:57;;;;;;;58.00;52.10;;;;;;;12.91;99.71;97882.65;105858;1316;22130;-85
2022/10/24 08:02:26;;;;;;;54.50;49.10;;;;;;;12.99;98.83;97885.03;105614;1316;22239;-84
2022/10/24 08:04:53;;;;;;;47.00;42.30;;;;;;;13.05;98.50;97882.15;105431;1323;22189;-84
2022/10/24 08:07:21;;;;;;;35.90;32.00;;;;;;;13.16;99.47;97868.59;105435;1323;22114;-83
2022/10/24 08:09:50;;;;;;;37.90;34.00;;;;;;;13.29;99.28;97864.73;105474;1322;22207;-82
2022/10/24 08:12:18;;;;;;;30.50;25.00;;;;;;;13.45;99.68;97853.06;105635;1308;22184;-83
2022/10/24 08:14:46;;;;;;;31.20;25.00;;;;;;;13.58;99.07;97856.23;105093;1309;22787;-82
2022/10/24 08:17:16;;;;;;;27.90;24.40;;;;;;;13.71;98.39;97853.20;105671;1316;22142;-83
2022/10/24 08:19:44;;;;;;;26.30;23.60;;;;;;;13.86;97.74;97852.30;105414;1323;22799;-82
2022/10/24 08:22:12;;;;;;;23.00;20.60;;;;;;;14.01;97.42;97842.05;105192;1324;22186;-82
2022/10/24 08:24:42;;;;;;;23.80;19.90;;;;;;;14.15;97.43;97830.47;105666;1316;22165;-83
2022/10/24 08:27:10;;;;;;;24.40;18.30;;;;;;;14.31;97.84;97826.11;105445;1323;22133;-84
2022/10/24 08:29:38;;;;;;;20.40;17.60;;;;;;;14.57;98.28;97819.67;105159;1324;22211;-82
2022/10/24 08:32:06;;;;;;;17.40;15.50;;;;;;;14.82;96.27;97815.48;105434;1323;22854;-83
2022/10/24 08:34:36;;;;;;;34.50;18.40;;;;;;;14.96;94.42;97826.56;105832;1316;22191;-83
2022/10/24 08:37:04;;;;;;;20.30;17.80;;;;;;;15.11;93.18;97832.37;105449;1322;22153;-84
2022/10/24 08:39:32;;;;;;;19.40;16.30;;;;;;;15.26;92.31;97827.88;105580;1317;22060;-83
2022/10/24 08:42:04;;;;;;;33.80;17.20;;;;;;;15.44;93.05;97826.95;105470;1323;22188;-84
2022/10/24 08:44:36;;;;;;;17.00;12.50;;;;;;;15.62;91.76;97831.69;105462;1315;22201;-84
2022/10/24 08:47:30;;;;;;;17.10;14.40;;;;;;;15.71;91.08;97822.59;105210;1324;22213;-83
2022/10/24 08:49:58;;;;;;;16.10;14.40;;;;;;;15.78;91.58;97823.30;105858;1308;22347;-83
2022/10/24 08:52:35;;;;;;;16.80;13.20;;;;;;;15.82;90.09;97825.38;105492;1319;22147;-82
2022/10/24 08:55:12;;;;;;;12.90;11.20;;;;;;;15.85;89.87;97835.35;105479;1324;22956;-82
2022/10/24 08:57:56;;;;;;;14.60;10.80;;;;;;;15.89;89.77;97827.75;105348;1324;22035;-82
2022/10/24 09:00:35;;;;;;;15.10;10.40;;;;;;;15.93;88.53;97827.31;105418;1324;22706;-83
2022/10/24 09:03:13;;;;;;;18.10;10.90;;;;;;;15.94;89.30;97818.49;105675;1317;22080;-82
2022/10/24 09:05:54;;;;;;;14.30;11.00;;;;;;;15.98;89.78;97825.53;105388;1324;22113;-83
2022/10/24 09:08:28;;;;;;;18.20;12.50;;;;;;;16.01;89.15;97841.87;105732;1317;22092;-82
2022/10/24 09:10:59;;;;;;;13.00;10.10;;;;;;;16.03;87.96;97858.65;105489;1322;22197;-82
2022/10/24 09:13:29;;;;;;;13.40;9.00;;;;;;;16.08;87.45;97864.56;105474;1324;22087;-83
2022/10/24 09:15:57;;;;;;;11.80;8.10;;;;;;;16.11;86.59;97864.83;105886;1305;22986;-83
2022/10/24 09:18:40;;;;;;;13.30;8.20;;;;;;;16.18;86.51;97857.35;105464;1322;22138;-84
2022/10/24 09:21:12;;;;;;;11.50;7.80;;;;;;;16.27;86.07;97854.73;105147;1318;22119;-82
2022/10/24 09:23:41;;;;;;;14.60;7.90;;;;;;;16.42;85.89;97853.28;105692;1305;22746;-84
2022/10/24 09:26:23;;;;;;;11.20;7.60;;;;;;;16.57;85.81;97852.36;105513;1324;22925;-84
2022/10/24 09:28:53;;;;;;;11.20;7.70;;;;;;;16.75;84.98;97838.13;105626;1308;22869;-84
2022/10/24 09:31:25;;;;;;;9.50;7.50;;;;;;;16.90;84.60;97835.26;105104;1324;22156;-84
2022/10/24 09:33:53;;;;;;;8.60;6.90;;;;;;;17.04;83.99;97831.50;105828;1303;22106;-83
2022/10/24 09:36:23;;;;;;;20.30;9.10;;;;;;;17.14;83.57;97823.38;105428;1324;22228;-86
2022/10/24 09:38:51;;;;;;;13.80;8.10;;;;;;;17.25;83.91;97811.58;105807;1305;22090;-85
2022/10/24 09:41:23;;;;;;;11.10;7.40;;;;;;;17.31;81.71;97813.13;105816;1317;22172;-84
2022/10/24 09:43:59;;;;;;;15.10;9.20;;;;;;;17.28;82.45;97814.77;105844;1317;22075;-85
2022/10/24 09:46:35;;;;;;;16.60;9.00;;;;;;;17.27;81.45;97819.95;105292;1324;22069;-85
2022/10/24 09:49:18;;;;;;;14.00;7.90;;;;;;;17.23;81.60;97823.17;105677;1316;22088;-84
2022/10/24 09:51:57;;;;;;;11.40;8.20;;;;;;;17.20;81.10;97827.62;105651;1317;22077;-84
2022/10/24 09:54:28;;;;;;;10.70;6.90;;;;;;;17.20;82.32;97815.23;105259;1324;22091;-84
2022/10/24 09:57:02;;;;;;;15.50;9.80;;;;;;;17.26;82.92;97813.61;105574;1317;22175;-83
2022/10/24 09:59:36;;;;;;;23.40;10.10;;;;;;;17.31;82.48;97813.00;105327;1318;22041;-83
2022/10/24 10:02:11;;;;;;;14.00;9.40;;;;;;;17.35;82.16;97813.41;105412;1323;22198;-83
2022/10/24 10:04:40;;;;;;;19.70;10.60;;;;;;;17.38;82.14;97817.78;105639;1317;22205;-84
2022/10/24 10:07:15;;;;;;;17.40;7.70;;;;;;;17.41;81.90;97820.06;105332;1322;127028;-84
2022/10/24 10:10:21;;;;;;;16.50;8.00;;;;;;;17.46;82.06;97828.98;105816;1317;22107;-84
2022/10/24 10:13:00;;;;;;;9.60;6.60;;;;;;;17.49;82.54;97817.48;105475;1317;22929;-84
2022/10/24 10:15:34;;;;;;;13.20;6.70;;;;;;;17.57;83.10;97812.66;105310;1324;22169;-85
2022/10/24 10:18:21;;;;;;;9.00;6.10;;;;;;;17.67;82.15;97819.71;105380;1324;22308;-84
2022/10/24 10:21:04;;;;;;;12.30;6.60;;;;;;;17.69;81.00;97826.29;105407;1324;22225;-85
2022/10/24 10:23:35;;;;;;;12.20;6.30;;;;;;;17.66;80.27;97831.96;105310;1324;22214;-87
2022/10/24 10:26:21;;;;;;;12.90;6.60;;;;;;;17.66;80.28;97836.56;105275;1316;22881;-87
2022/10/24 10:28:55;;;;;;;11.70;6.30;;;;;;;17.62;79.05;97825.34;105379;1323;22130;-84
2022/10/24 10:31:45;;;;;;;13.50;6.30;;;;;;;17.63;80.00;97809.08;105835;1317;22077;-88
2022/10/24 10:34:20;;;;;;;14.80;6.60;;;;;;;17.71;80.02;97806.40;105418;1324;22117;-88
2022/10/24 10:37:04;;;;;;;11.20;6.10;;;;;;;17.80;79.86;97830.20;105438;1324;22239;-88
2022/10/24 10:39:50;;;;;;;12.10;6.30;;;;;;;17.94;79.57;97836.33;105425;1316;22123;-88
2022/10/24 10:42:34;;;;;;;12.00;6.70;;;;;;;18.11;77.03;97843.41;105313;1324;22161;-90
2022/10/24 10:45:10;;;;;;;9.90;5.90;;;;;;;18.17;76.28;97845.52;105397;1324;22939;-89
2022/10/24 10:47:58;;;;;;;9.60;6.50;;;;;;;18.16;75.71;97844.58;105399;1324;22168;-90
2022/10/24 10:50:26;;;;;;;15.30;5.80;;;;;;;18.17;77.15;97835.23;105804;1317;22108;-90
2022/10/24 10:53:03;;;;;;;13.30;6.60;;;;;;;18.23;76.55;97833.37;105406;1324;22225;-90
2022/10/24 10:55:56;;;;;;;36.70;8.00;;;;;;;18.37;76.32;97833.10;105459;1323;22125;-88
2022/10/24 10:58:37;;;;;;;12.50;6.30;;;;;;;18.42;75.09;97841.86;105812;1317;22161;-88
2022/10/24 11:01:05;;;;;;;12.60;6.10;;;;;;;18.48;74.62;97830.86;105822;1315;22176;-89
2022/10/24 11:03:43;;;;;;;10.40;6.10;;;;;;;18.59;74.84;97829.96;105809;1317;22187;-89
2022/10/24 11:06:25;;;;;;;11.80;6.40;;;;;;;18.75;74.29;97823.59;105852;1301;22950;-88
2022/10/24 11:09:05;;;;;;;16.30;9.10;;;;;;;18.90;72.68;97825.34;105425;1323;22074;-89
2022/10/24 11:11:38;;;;;;;13.60;5.30;;;;;;;18.97;72.28;97812.56;105418;1324;22081;-88
2022/10/24 11:14:22;;;;;;;10.70;6.20;;;;;;;19.02;70.79;97815.55;105636;1303;22757;-88
2022/10/24 11:16:55;;;;;;;11.90;5.30;;;;;;;19.13;72.18;97817.36;105377;1323;22896;-89
2022/10/24 11:19:28;;;;;;;8.40;4.80;;;;;;;19.29;71.65;97812.14;105790;1316;22254;-88
2022/10/24 11:22:01;;;;;;;8.00;5.00;;;;;;;19.42;70.31;97809.70;105782;1315;22038;-88
2022/10/24 11:24:44;;;;;;;11.10;5.10;;;;;;;19.48;69.53;97807.08;105426;1324;22258;-87
2022/10/24 11:27:21;;;;;;;10.80;4.60;;;;;;;19.55;68.78;97806.67;105380;1323;22102;-89
2022/10/24 11:30:13;;;;;;;6.40;4.10;;;;;;;19.61;68.64;97810.62;105411;1324;22245;-87
2022/10/24 11:33:00;;;;;;;7.10;5.30;;;;;;;19.72;68.73;97806.04;105578;1317;22048;-85
2022/10/24 11:35:31;;;;;;;9.90;4.90;;;;;;;19.83;66.72;97811.23;105394;1323;22818;-89